createdAt,value
2019-06-15T00:01:39.735Z,24.30
2019-06-15T00:04:07.233Z,23.38
2019-06-15T00:06:34.782Z,23.18
2019-06-15T00:09:02.247Z,24.15
2019-06-15T00:11:29.776Z,23.12
2019-06-15T00:13:57.236Z,24.25
2019-06-15T00:16:24.656Z,24.67
2019-06-15T00:18:52.056Z,23.80
2019-06-15T00:21:19.577Z,24.55
2019-06-15T00:23:47.078Z,23.12
2019-06-15T00:26:14.611Z,24.05
2019-06-15T00:28:42.052Z,23.15
2019-06-15T00:31:09.452Z,24.18
2019-06-15T00:33:36.810Z,25.05
2019-06-15T00:36:04.238Z,24.52
2019-06-15T00:38:31.595Z,24.25
2019-06-15T00:40:59.021Z,24.85
2019-06-15T00:43:26.493Z,24.82
2019-06-15T00:45:53.816Z,26.33
2019-06-15T00:48:21.220Z,25.35
2019-06-15T00:50:48.575Z,24.75
2019-06-15T00:53:16.158Z,24.70
2019-06-15T00:55:46.277Z,26.42
2019-06-15T00:58:13.680Z,25.35
2019-06-15T01:00:41.158Z,26.12
2019-06-15T01:03:08.637Z,26.57
2019-06-15T01:05:36.094Z,23.77
2019-06-15T01:08:03.528Z,24.15
2019-06-15T01:10:30.949Z,26.02
2019-06-15T01:12:58.623Z,26.20
2019-06-15T01:15:25.973Z,24.72
2019-06-15T01:17:53.460Z,24.45
2019-06-15T01:20:21.037Z,26.07
2019-06-15T01:22:48.593Z,25.97
2019-06-15T01:25:15.902Z,25.70
2019-06-15T01:27:43.367Z,26.97
2019-06-15T01:30:12.159Z,25.37
2019-06-15T01:32:41.515Z,26.87
2019-06-15T01:35:08.949Z,27.32
2019-06-15T01:37:36.286Z,26.85
2019-06-15T01:40:07.267Z,28.17
2019-06-15T01:42:34.682Z,27.25
2019-06-15T01:45:05.451Z,28.60
2019-06-15T01:47:32.868Z,29.02
2019-06-15T01:50:00.424Z,27.93
2019-06-15T01:52:27.755Z,27.90
2019-06-15T01:54:55.163Z,27.73
2019-06-15T01:57:22.593Z,28.27
2019-06-15T01:59:49.917Z,28.52
2019-06-15T02:02:17.362Z,28.25
2019-06-15T02:04:44.750Z,29.48
2019-06-15T02:07:12.165Z,28.20
2019-06-15T02:09:39.490Z,29.48
2019-06-15T02:12:06.820Z,28.85
2019-06-15T02:14:34.263Z,29.42
2019-06-15T02:17:04.498Z,30.30
2019-06-15T02:19:31.837Z,30.25
2019-06-15T02:21:59.261Z,28.23
2019-06-15T02:24:26.714Z,28.73
2019-06-15T02:26:54.026Z,27.87
2019-06-15T02:29:21.384Z,28.02
2019-06-15T02:31:48.806Z,26.33
2019-06-15T02:34:16.203Z,30.15
2019-06-15T02:36:43.518Z,28.17
2019-06-15T02:39:10.950Z,30.97
2019-06-15T02:41:38.624Z,28.87
2019-06-15T02:44:06.001Z,28.23
2019-06-15T02:46:33.373Z,28.23
2019-06-15T02:49:00.773Z,29.18
2019-06-15T02:51:28.112Z,28.98
2019-06-15T02:53:55.489Z,29.42
2019-06-15T02:56:22.928Z,26.27
2019-06-15T02:58:50.388Z,26.27
2019-06-15T03:01:17.842Z,26.93
2019-06-15T03:03:45.318Z,25.05
2019-06-15T03:06:12.703Z,24.15
2019-06-15T03:08:40.167Z,27.55
2019-06-15T03:11:07.681Z,26.02
2019-06-15T03:13:35.317Z,27.90
2019-06-15T03:16:05.571Z,26.37
2019-06-15T03:18:32.906Z,28.02
2019-06-15T03:21:00.290Z,26.70
2019-06-15T03:23:27.766Z,27.65
2019-06-15T03:26:05.041Z,26.45
2019-06-15T03:28:24.383Z,26.65
2019-06-15T03:30:51.753Z,26.52
2019-06-15T03:33:19.172Z,24.47
2019-06-15T03:35:46.638Z,24.45
2019-06-15T03:38:14.203Z,24.05
2019-06-15T03:40:42.082Z,24.95
2019-06-15T03:43:09.560Z,21.30
2019-06-15T03:45:37.062Z,22.82
2019-06-15T03:48:06.309Z,23.10
2019-06-15T03:50:33.794Z,22.15
2019-06-15T03:53:01.317Z,24.27
2019-06-15T03:55:28.760Z,20.62
2019-06-15T03:57:56.122Z,22.48
2019-06-15T04:00:27.768Z,21.62
2019-06-15T04:02:55.686Z,22.98
2019-06-15T04:05:23.155Z,23.25
2019-06-15T04:07:50.567Z,21.97
2019-06-15T04:10:18.139Z,21.12
2019-06-15T04:12:50.439Z,23.07
2019-06-15T04:15:19.088Z,19.82
2019-06-15T04:17:46.544Z,21.40
2019-06-15T04:20:14.098Z,20.43
2019-06-15T04:22:41.488Z,20.02
2019-06-15T04:25:11.257Z,20.08
2019-06-15T04:27:38.756Z,20.17
2019-06-15T04:30:06.273Z,18.52
2019-06-15T04:32:33.729Z,20.60
2019-06-15T04:35:01.275Z,19.45
2019-06-15T04:37:37.093Z,19.85
2019-06-15T04:40:00.226Z,18.98
2019-06-15T04:42:27.681Z,17.62
2019-06-15T04:44:55.373Z,17.98
2019-06-15T04:47:22.914Z,18.15
2019-06-15T04:49:50.348Z,17.67
2019-06-15T04:52:17.931Z,16.82
2019-06-15T04:54:46.997Z,16.25
2019-06-15T04:57:14.493Z,16.80
2019-06-15T04:59:42.001Z,16.15
2019-06-15T05:02:09.407Z,15.70
2019-06-15T05:04:36.768Z,16.75
2019-06-15T05:07:04.222Z,16.32
2019-06-15T05:09:31.622Z,14.90
2019-06-15T05:11:59.010Z,14.70
2019-06-15T05:14:26.520Z,15.55
2019-06-15T05:16:53.909Z,15.05
2019-06-15T05:19:26.717Z,15.63
2019-06-15T05:21:54.253Z,13.48
2019-06-15T05:24:23.252Z,15.25
2019-06-15T05:27:05.540Z,13.78
2019-06-15T05:29:25.466Z,14.73
2019-06-15T05:31:54.727Z,13.35
2019-06-15T05:34:24.689Z,13.68
2019-06-15T05:36:54.595Z,14.18
2019-06-15T05:39:23.629Z,13.72
2019-06-15T05:41:55.023Z,13.18
2019-06-15T05:44:22.869Z,14.35
2019-06-15T05:46:53.069Z,13.60
2019-06-15T05:49:23.292Z,14.70
2019-06-15T05:51:52.326Z,13.30
2019-06-15T05:54:21.379Z,13.28
2019-06-15T05:56:48.964Z,13.08
2019-06-15T05:59:41.872Z,12.20
2019-06-15T06:02:09.366Z,12.98
2019-06-15T06:04:39.849Z,12.82
2019-06-15T06:07:07.390Z,12.35
2019-06-15T06:09:34.917Z,11.48
2019-06-15T06:12:02.475Z,13.48
2019-06-15T06:14:29.910Z,12.82
2019-06-15T06:16:57.482Z,12.95
2019-06-15T06:19:38.585Z,13.35
2019-06-15T06:22:15.189Z,12.53
2019-06-15T06:24:39.838Z,12.35
2019-06-15T06:27:07.352Z,11.65
2019-06-15T06:29:34.825Z,12.18
2019-06-15T06:32:05.684Z,13.45
2019-06-15T06:34:33.145Z,13.32
2019-06-15T06:37:02.275Z,13.35
2019-06-15T06:39:31.285Z,12.03
2019-06-15T06:42:00.005Z,12.65
2019-06-15T06:44:30.376Z,12.93
2019-06-15T06:46:57.894Z,12.33
2019-06-15T06:49:27.936Z,12.95
2019-06-15T06:51:55.403Z,12.37
2019-06-15T06:54:22.924Z,13.75
2019-06-15T06:56:52.074Z,11.85
2019-06-15T06:59:21.703Z,12.58
2019-06-15T07:01:51.180Z,13.93
2019-06-15T07:04:29.748Z,13.43
2019-06-15T07:06:59.431Z,12.88
2019-06-15T07:09:36.125Z,13.95
2019-06-15T07:12:08.128Z,14.10
2019-06-15T07:14:38.882Z,14.13
2019-06-15T07:17:12.140Z,12.47
2019-06-15T07:22:32.564Z,12.50
2019-06-15T07:25:00.156Z,12.95
2019-06-15T07:27:32.434Z,13.13
2019-06-15T07:30:12.332Z,13.00
2019-06-15T07:32:43.064Z,11.45
2019-06-15T07:35:12.168Z,12.18
2019-06-15T07:37:41.234Z,11.15
2019-06-15T07:40:18.076Z,10.75
2019-06-15T08:15:26.449Z,8.00
2019-06-15T08:18:18.772Z,8.25
2019-06-15T08:36:45.561Z,7.90
2019-06-15T08:39:16.495Z,7.92
2019-06-15T08:41:48.145Z,8.10
2019-06-15T08:44:18.366Z,9.10
2019-06-15T08:46:44.815Z,7.05
2019-06-15T08:49:12.312Z,7.95
2019-06-15T08:51:39.704Z,7.85
2019-06-15T08:54:07.304Z,8.20
2019-06-15T08:56:36.711Z,8.18
2019-06-15T08:59:07.116Z,8.20
2019-06-15T09:01:36.204Z,8.35
2019-06-15T09:04:07.451Z,9.58
2019-06-15T09:14:57.713Z,8.83
2019-06-15T09:25:30.413Z,8.18
2019-06-15T09:28:00.084Z,9.28
2019-06-15T09:30:27.822Z,9.23
2019-06-15T09:32:55.151Z,9.53
2019-06-15T09:35:22.481Z,8.95
2019-06-15T09:37:49.884Z,9.28
2019-06-15T09:40:17.319Z,8.83
2019-06-15T09:42:44.733Z,8.38
2019-06-15T09:45:12.142Z,8.20
2019-06-15T09:47:39.471Z,7.90
2019-06-15T09:50:06.792Z,7.70
2019-06-15T09:52:34.240Z,8.00
2019-06-15T09:55:01.625Z,8.70
2019-06-15T09:57:29.266Z,8.80
2019-06-15T09:59:56.611Z,9.20
2019-06-15T10:02:24.001Z,7.60
2019-06-15T10:04:53.630Z,8.63
2019-06-15T10:07:23.891Z,7.10
2019-06-15T10:09:51.318Z,8.05
2019-06-15T10:12:18.696Z,8.80
2019-06-15T10:14:46.162Z,8.93
2019-06-15T10:17:13.560Z,8.55
2019-06-15T10:19:40.987Z,7.47
2019-06-15T10:22:08.314Z,8.40
2019-06-15T10:24:35.629Z,8.80
2019-06-15T10:27:02.980Z,7.87
2019-06-15T10:29:41.690Z,8.45
2019-06-15T10:31:59.267Z,8.50
2019-06-15T10:34:26.697Z,8.58
2019-06-15T10:36:54.001Z,8.43
2019-06-15T10:39:21.339Z,8.35
2019-06-15T10:41:48.679Z,8.50
2019-06-15T10:44:16.027Z,7.45
2019-06-15T10:46:45.938Z,7.70
2019-06-15T10:49:13.314Z,8.13
2019-06-15T10:51:40.691Z,7.50
2019-06-15T10:54:08.049Z,8.43
2019-06-15T10:56:35.666Z,7.08
2019-06-15T10:59:03.004Z,6.92
2019-06-15T11:01:30.391Z,6.55
2019-06-15T11:03:57.728Z,7.30
2019-06-15T11:06:25.049Z,8.10
2019-06-15T11:08:52.492Z,8.95
2019-06-15T11:11:21.801Z,9.68
2019-06-15T11:13:49.453Z,8.25
2019-06-15T11:16:16.931Z,8.83
2019-06-15T11:18:44.361Z,9.58
2019-06-15T11:21:11.687Z,8.18
2019-06-15T11:23:39.121Z,7.72
2019-06-15T11:26:06.432Z,8.05
2019-06-15T11:28:33.943Z,9.33
2019-06-15T11:31:01.407Z,9.20
2019-06-15T11:33:28.766Z,8.68
2019-06-15T11:35:56.153Z,8.83
2019-06-15T11:38:23.499Z,7.72
2019-06-15T11:40:50.825Z,8.73
2019-06-15T11:43:18.202Z,8.40
2019-06-15T11:45:45.922Z,9.03
2019-06-15T11:48:13.250Z,8.75
2019-06-15T11:50:40.580Z,9.15
2019-06-15T11:53:07.974Z,8.85
2019-06-15T11:55:39.393Z,8.85
2019-06-15T11:58:04.530Z,9.33
2019-06-15T12:00:33.496Z,8.90
2019-06-15T12:03:00.884Z,8.78
2019-06-15T12:05:28.325Z,9.05
2019-06-15T12:07:55.652Z,8.53
2019-06-15T12:10:25.736Z,7.92
2019-06-15T12:12:53.068Z,8.15
2019-06-15T12:15:20.414Z,8.60
2019-06-15T12:17:47.792Z,8.38
2019-06-15T12:20:16.843Z,8.50
2019-06-15T12:22:44.092Z,7.45
2019-06-15T12:25:11.501Z,8.35
2019-06-15T12:27:38.834Z,8.60
2019-06-15T12:30:06.571Z,8.03
2019-06-15T12:32:33.926Z,8.53
2019-06-15T12:35:01.225Z,7.42
2019-06-15T12:37:29.604Z,9.15
2019-06-15T12:39:56.977Z,8.80
2019-06-15T12:42:24.273Z,7.80
2019-06-15T12:44:51.622Z,8.18
2019-06-15T12:47:20.593Z,8.00
2019-06-15T12:49:48.002Z,7.42
2019-06-15T12:52:15.413Z,7.00
2019-06-15T12:54:42.757Z,8.45
2019-06-15T12:57:10.107Z,7.33
2019-06-15T12:59:37.438Z,7.12
2019-06-15T13:02:04.744Z,8.10
2019-06-15T13:04:32.249Z,7.83
2019-06-15T13:06:59.581Z,7.67
2019-06-15T13:09:26.959Z,7.25
2019-06-15T13:11:54.309Z,7.05
2019-06-15T13:14:21.710Z,7.20
2019-06-15T13:16:49.116Z,6.90
2019-06-15T13:19:16.511Z,6.20
2019-06-15T13:21:44.222Z,6.42
2019-06-15T13:24:11.713Z,7.00
2019-06-15T13:26:39.068Z,7.33
2019-06-15T13:29:07.439Z,6.00
2019-06-15T13:31:34.761Z,6.83
2019-06-15T13:34:02.183Z,6.62
2019-06-15T13:36:29.533Z,7.40
2019-06-15T13:38:56.955Z,6.90
2019-06-15T13:41:24.630Z,6.05
2019-06-15T13:43:52.093Z,7.78
2019-06-15T13:46:19.446Z,7.10
2019-06-15T13:48:46.766Z,7.83
2019-06-15T13:51:14.318Z,6.30
2019-06-15T13:53:41.671Z,7.25
2019-06-15T13:56:09.025Z,7.87
2019-06-15T13:58:36.440Z,7.87
2019-06-15T14:01:03.785Z,7.65
2019-06-15T14:03:31.126Z,7.30
2019-06-15T14:05:58.448Z,7.00
2019-06-15T14:08:25.896Z,6.83
2019-06-15T14:10:53.213Z,7.47
2019-06-15T14:13:20.673Z,7.45
2019-06-15T14:15:48.068Z,6.95
2019-06-15T14:18:15.371Z,7.75
2019-06-15T14:20:42.716Z,7.70
2019-06-15T14:23:10.130Z,8.63
2019-06-15T14:25:37.439Z,6.92
2019-06-15T14:28:04.803Z,6.87
2019-06-15T14:30:32.296Z,7.28
2019-06-15T14:32:59.689Z,7.05
2019-06-15T14:35:27.153Z,7.03
2019-06-15T14:37:54.593Z,7.08
2019-06-15T14:40:21.959Z,7.17
2019-06-15T14:42:49.289Z,6.83
2019-06-15T14:45:16.667Z,6.70
2019-06-15T14:47:44.035Z,7.00
2019-06-15T14:50:11.390Z,7.30
2019-06-15T14:52:38.809Z,5.87
2019-06-15T14:55:07.240Z,6.80
2019-06-15T14:57:36.125Z,6.47
2019-06-15T15:00:07.942Z,7.78
2019-06-15T15:02:33.341Z,6.22
2019-06-15T15:05:00.681Z,6.65
2019-06-15T15:07:28.021Z,6.08
2019-06-15T15:09:56.663Z,7.67
2019-06-15T15:12:26.363Z,6.97
2019-06-15T15:14:53.347Z,7.08
2019-06-15T15:17:20.654Z,7.15
2019-06-15T15:19:48.111Z,6.60
2019-06-15T15:22:16.006Z,6.70
2019-06-15T15:24:43.351Z,7.42
2019-06-15T15:27:10.694Z,7.28
2019-06-15T15:29:38.037Z,7.25
2019-06-15T15:32:07.971Z,7.15
2019-06-15T15:34:34.691Z,6.95
2019-06-15T15:37:02.117Z,6.03
2019-06-15T15:39:29.437Z,8.23
2019-06-15T15:41:56.778Z,6.83
2019-06-15T15:44:26.709Z,7.92
2019-06-15T15:46:53.219Z,6.83
2019-06-15T15:49:20.553Z,7.90
2019-06-15T15:51:48.089Z,7.92
2019-06-15T15:54:15.535Z,8.40
2019-06-15T15:56:42.979Z,6.85
2019-06-15T15:59:10.374Z,8.60
2019-06-15T16:01:37.735Z,8.20
2019-06-15T16:04:06.353Z,8.25
2019-06-15T16:06:36.178Z,8.28
2019-06-15T16:09:05.729Z,8.33
2019-06-15T16:11:32.316Z,8.23
2019-06-15T16:13:59.644Z,8.43
2019-06-15T16:16:26.995Z,8.50
2019-06-15T16:18:56.125Z,8.80
2019-06-15T16:21:25.898Z,9.50
2019-06-15T16:23:54.930Z,8.50
2019-06-15T16:26:21.730Z,8.45
2019-06-15T16:28:49.065Z,9.10
2019-06-15T16:31:18.804Z,8.60
2019-06-15T16:33:46.531Z,7.60
2019-06-15T16:36:13.996Z,7.87
2019-06-15T16:38:41.350Z,8.00
2019-06-15T16:41:08.716Z,7.75
2019-06-15T16:43:37.071Z,7.92
2019-06-15T16:46:06.416Z,7.08
2019-06-15T16:48:33.543Z,7.62
2019-06-15T16:51:00.884Z,7.53
2019-06-15T16:53:28.223Z,7.72
2019-06-15T16:55:56.542Z,7.55
2019-06-15T16:58:26.352Z,8.25
2019-06-15T17:00:53.076Z,7.80
2019-06-15T17:03:25.110Z,7.62
2019-06-15T17:05:52.107Z,8.15
2019-06-15T17:08:19.518Z,8.35
2019-06-15T17:10:46.900Z,7.28
2019-06-15T17:13:16.084Z,7.97
2019-06-15T17:15:43.625Z,8.38
2019-06-15T17:18:11.070Z,7.83
2019-06-15T17:20:48.397Z,7.62
2019-06-15T17:23:16.436Z,8.18
2019-06-15T17:25:43.836Z,8.70
2019-06-15T17:28:11.167Z,8.33
2019-06-15T17:30:38.494Z,8.15
2019-06-15T17:33:08.228Z,8.50
2019-06-15T17:35:36.277Z,7.62
2019-06-15T17:38:05.754Z,8.68
2019-06-15T17:40:36.447Z,8.35
2019-06-15T17:43:06.434Z,8.83
2019-06-15T17:45:33.651Z,8.98
2019-06-15T17:48:02.712Z,9.00
2019-06-15T17:50:31.712Z,8.05
2019-06-15T17:53:02.221Z,8.25
2019-06-15T17:55:29.615Z,8.75
2019-06-15T17:57:57.782Z,8.85
2019-06-15T18:00:26.838Z,8.60
2019-06-15T18:02:56.113Z,8.33
2019-06-15T18:05:23.322Z,8.95
2019-06-15T18:07:50.788Z,8.75
2019-06-15T18:10:18.230Z,8.20
2019-06-15T18:12:46.837Z,9.18
2019-06-15T18:15:14.428Z,9.33
2019-06-15T18:17:41.901Z,8.78
2019-06-15T18:20:09.224Z,9.15
2019-06-15T18:22:36.562Z,9.25
2019-06-15T18:25:06.447Z,8.73
2019-06-15T18:27:33.525Z,9.95
2019-06-15T18:30:00.889Z,10.18
2019-06-15T18:32:28.271Z,10.08
2019-06-15T18:34:56.098Z,9.73
2019-06-15T18:37:23.963Z,9.63
2019-06-15T18:39:51.308Z,9.88
2019-06-15T18:42:18.732Z,9.38
2019-06-15T18:44:47.945Z,10.20
2019-06-15T18:47:16.523Z,9.65
2019-06-15T18:49:43.961Z,10.20
2019-06-15T18:52:11.419Z,9.88
2019-06-15T18:54:38.877Z,9.28
2019-06-15T18:57:07.445Z,9.43
2019-06-15T18:59:36.532Z,9.63
2019-06-15T19:02:06.532Z,9.63
2019-06-15T19:04:32.890Z,10.25
2019-06-15T19:07:00.330Z,9.53
2019-06-15T19:09:27.724Z,10.50
2019-06-15T19:11:56.626Z,10.23
2019-06-15T19:14:24.236Z,10.82
2019-06-15T19:16:51.550Z,10.40
2019-06-15T19:19:18.942Z,10.63
2019-06-15T19:21:46.322Z,9.85
2019-06-15T19:24:16.566Z,10.25
2019-06-15T19:26:42.804Z,9.73
2019-06-15T19:29:10.156Z,10.08
2019-06-15T19:31:37.558Z,10.03
2019-06-15T19:34:06.754Z,10.28
2019-06-15T19:36:36.486Z,10.70
2019-06-15T19:39:06.128Z,10.95
2019-06-15T19:41:32.849Z,10.50
2019-06-15T19:44:00.291Z,10.28
2019-06-15T19:46:27.691Z,10.38
2019-06-15T19:48:56.052Z,11.53
2019-06-15T19:51:26.036Z,10.98
2019-06-15T19:53:52.537Z,12.45
2019-06-15T19:56:19.916Z,12.60
2019-06-15T19:58:47.275Z,13.32
2019-06-15T20:01:16.665Z,16.75
2019-06-15T20:03:46.314Z,20.97
2019-06-15T20:06:12.774Z,21.12
2019-06-15T20:08:41.101Z,20.57
2019-06-15T20:11:08.451Z,21.25
2019-06-15T20:13:37.140Z,20.55
2019-06-15T20:16:05.295Z,20.52
2019-06-15T20:18:33.817Z,19.67
2019-06-15T20:21:01.347Z,21.62
2019-06-15T20:23:29.030Z,21.60
2019-06-15T20:25:56.418Z,21.02
2019-06-15T20:28:23.827Z,22.73
2019-06-15T20:30:51.238Z,27.10
2019-06-15T20:33:18.574Z,27.77
2019-06-15T20:35:47.190Z,27.02
2019-06-15T20:38:16.099Z,25.95
2019-06-15T20:40:43.647Z,25.45
2019-06-15T20:43:11.012Z,25.32
2019-06-15T20:45:38.450Z,23.62
2019-06-15T20:48:06.820Z,23.38
2019-06-15T20:50:36.275Z,21.60
2019-06-15T20:53:05.842Z,20.40
2019-06-15T20:55:32.502Z,21.05
2019-06-15T20:57:59.831Z,19.87
2019-06-15T21:00:27.302Z,19.17
2019-06-15T21:02:56.120Z,19.17
2019-06-15T21:05:34.896Z,18.85
2019-06-15T21:07:52.782Z,17.60
2019-06-15T21:10:20.229Z,16.50
2019-06-15T21:12:47.708Z,16.37
2019-06-15T21:15:15.115Z,15.75
2019-06-15T21:17:42.464Z,11.70
2019-06-15T21:20:09.878Z,11.38
2019-06-15T21:22:37.273Z,8.48
2019-06-15T21:25:06.814Z,7.85
2019-06-15T21:27:34.030Z,6.80
2019-06-15T21:30:01.462Z,6.90
2019-06-15T21:32:28.850Z,4.78
2019-06-15T21:34:56.258Z,5.03
2019-06-15T21:37:25.926Z,4.17
2019-06-15T21:39:52.718Z,5.65
2019-06-15T21:42:20.054Z,4.85
2019-06-15T21:44:47.413Z,4.42
2019-06-15T21:47:14.761Z,3.50
2019-06-15T21:49:42.107Z,3.65
2019-06-15T21:52:09.822Z,3.35
2019-06-15T21:54:37.143Z,3.72
2019-06-15T21:57:06.848Z,4.03
2019-06-15T21:59:33.596Z,3.00
2019-06-15T22:02:00.986Z,3.27
2019-06-15T22:04:28.302Z,2.10
2019-06-15T22:06:56.433Z,3.02
2019-06-15T22:09:26.367Z,3.33
2019-06-15T22:11:52.862Z,3.17
2019-06-15T22:14:20.213Z,2.60
2019-06-15T22:16:47.535Z,2.40
2019-06-15T22:19:16.941Z,3.12
2019-06-15T22:21:43.871Z,3.33
2019-06-15T22:24:11.333Z,3.12
2019-06-15T22:26:38.681Z,2.87
2019-06-15T22:29:07.404Z,3.02
2019-06-15T22:31:35.101Z,3.08
2019-06-15T22:34:02.426Z,2.50
2019-06-15T22:36:29.750Z,2.60
2019-06-15T22:38:57.132Z,3.15
2019-06-15T22:41:24.413Z,2.75
2019-06-15T22:43:51.732Z,2.22
2019-06-15T22:46:19.083Z,2.62
2019-06-15T22:48:46.998Z,2.42
2019-06-15T22:51:16.667Z,2.25
2019-06-15T22:53:43.677Z,1.92
2019-06-15T22:56:11.094Z,2.12
2019-06-15T22:58:38.417Z,2.40
2019-06-15T23:01:06.190Z,2.47
2019-06-15T23:03:33.587Z,2.05
2019-06-15T23:06:00.931Z,2.30
2019-06-15T23:08:28.246Z,2.83
2019-06-15T23:10:57.147Z,2.90
2019-06-15T23:13:26.172Z,2.70
2019-06-15T23:15:56.209Z,2.47
2019-06-15T23:18:22.626Z,2.85
2019-06-15T23:20:50.019Z,3.33
2019-06-15T23:23:17.405Z,2.55
2019-06-15T23:25:47.028Z,3.20
2019-06-15T23:28:16.357Z,3.05
2019-06-15T23:30:43.481Z,2.77
2019-06-15T23:33:10.810Z,2.83
2019-06-15T23:35:42.756Z,2.70
2019-06-15T23:38:10.100Z,2.77
2019-06-15T23:40:37.412Z,2.98
2019-06-15T23:43:06.206Z,2.95
2019-06-15T23:45:35.971Z,3.45
2019-06-15T23:48:02.886Z,3.00
2019-06-15T23:50:30.263Z,3.40
2019-06-15T23:52:57.564Z,2.62
2019-06-15T23:55:26.774Z,2.85
2019-06-15T23:57:53.864Z,2.50
